createdAt,value
2022-10-11T00:01:36.009Z,98738.56
2022-10-11T00:04:02.484Z,98745.50
2022-10-11T00:06:28.972Z,98747.25
2022-10-11T00:08:55.376Z,98746.31
2022-10-11T00:11:21.983Z,98748.06
2022-10-11T00:13:48.431Z,98754.06
2022-10-11T00:16:16.559Z,98756.66
2022-10-11T00:18:43.002Z,98758.38
2022-10-11T00:21:13.811Z,98756.66
2022-10-11T00:23:41.234Z,98757.53
2022-10-11T00:26:10.076Z,98759.94
2022-10-11T00:28:37.609Z,98753.09
2022-10-11T00:31:08.019Z,98760.13
2022-10-11T00:33:35.196Z,98767.13
2022-10-11T00:36:02.301Z,98760.41
2022-10-11T00:38:31.590Z,98776.00
2022-10-11T00:40:59.031Z,98777.78
2022-10-11T00:43:28.064Z,98770.13
2022-10-11T00:45:57.594Z,98771.00
2022-10-11T00:48:40.922Z,98773.63
2022-10-11T00:51:15.038Z,98778.84
2022-10-11T00:53:42.215Z,98766.06
2022-10-11T00:56:24.908Z,98782.47
2022-10-11T00:58:52.810Z,98775.59
2022-10-11T01:01:19.418Z,98778.16
2022-10-11T01:03:46.400Z,98775.59
2022-10-11T01:06:12.891Z,98767.91
2022-10-11T01:08:39.716Z,98762.81
2022-10-11T01:11:06.638Z,98752.50
2022-10-11T01:13:49.567Z,98760.28
2022-10-11T01:16:15.947Z,98769.03
2022-10-11T01:19:25.179Z,98769.16
2022-10-11T01:22:14.943Z,98772.69
2022-10-11T01:25:05.633Z,98767.56
2022-10-11T01:27:53.381Z,98775.41
2022-10-11T01:30:37.655Z,98772.13
2022-10-11T01:33:37.279Z,98772.19
2022-10-11T01:36:45.317Z,98774.09
2022-10-11T01:39:31.263Z,98771.53
2022-10-11T01:42:18.572Z,98776.84
2022-10-11T01:44:47.684Z,98781.06
2022-10-11T01:47:19.279Z,98787.16
2022-10-11T01:49:46.216Z,98786.25
2022-10-11T01:52:12.853Z,98782.06
2022-10-11T01:55:08.777Z,98790.63
2022-10-11T01:58:23.142Z,98790.63
2022-10-11T02:01:06.019Z,98799.28
2022-10-11T02:03:49.333Z,98805.28
2022-10-11T02:06:51.256Z,98800.06
2022-10-11T02:09:36.762Z,98806.16
2022-10-11T02:12:09.155Z,98806.94
2022-10-11T02:14:43.669Z,98810.41
2022-10-11T02:17:18.324Z,98816.44
2022-10-11T02:19:49.917Z,98819.91
2022-10-11T02:22:24.709Z,98817.28
2022-10-11T02:24:55.136Z,98815.53
2022-10-11T02:27:24.955Z,98815.56
2022-10-11T02:29:54.221Z,98806.91
2022-10-11T02:32:23.960Z,98807.81
2022-10-11T02:34:59.073Z,98809.50
2022-10-11T02:37:43.708Z,98806.88
2022-10-11T02:40:32.457Z,98809.44
2022-10-11T02:43:12.062Z,98808.53
2022-10-11T02:45:43.359Z,98811.94
2022-10-11T02:48:11.966Z,98812.84
2022-10-11T02:50:43.173Z,98810.28
2022-10-11T02:53:09.886Z,98798.09
2022-10-11T02:55:36.592Z,98807.50
2022-10-11T02:58:03.420Z,98794.59
2022-10-11T03:00:30.164Z,98787.81
2022-10-11T03:02:56.678Z,98792.19
2022-10-11T03:05:23.223Z,98794.75
2022-10-11T03:07:49.728Z,98796.47
2022-10-11T03:10:16.351Z,98792.13
2022-10-11T03:12:42.828Z,98804.22
2022-10-11T03:15:09.737Z,98801.56
2022-10-11T03:17:37.365Z,98812.63
2022-10-11T03:20:05.925Z,98805.78
2022-10-11T03:22:32.415Z,98816.88
2022-10-11T03:25:03.532Z,98828.91
2022-10-11T03:27:31.663Z,98828.75
2022-10-11T03:29:58.180Z,98840.78
2022-10-11T03:32:24.881Z,98840.88
2022-10-11T03:34:51.449Z,98847.69
2022-10-11T03:37:18.422Z,98850.44
2022-10-11T03:39:45.920Z,98845.28
2022-10-11T03:42:13.320Z,98855.41
2022-10-11T03:44:39.796Z,98862.25
2022-10-11T03:47:06.223Z,98862.41
2022-10-11T03:49:32.835Z,98862.47
2022-10-11T03:51:59.414Z,98869.44
2022-10-11T03:54:26.228Z,98863.50
2022-10-11T03:56:52.948Z,98866.81
2022-10-11T03:59:19.377Z,98867.69
2022-10-11T04:01:45.859Z,98868.63
2022-10-11T04:04:12.382Z,98872.13
2022-10-11T04:06:38.849Z,98869.53
2022-10-11T04:09:05.431Z,98872.97
2022-10-11T04:11:31.895Z,98867.75
2022-10-11T04:13:58.648Z,98874.66
2022-10-11T04:16:26.207Z,98878.16
2022-10-11T04:18:52.912Z,98881.53
2022-10-11T04:21:19.367Z,98882.34
2022-10-11T04:23:45.881Z,98878.91
2022-10-11T04:26:12.334Z,98885.78
2022-10-11T04:28:39.119Z,98886.63
2022-10-11T04:31:06.632Z,98890.03
2022-10-11T04:33:33.533Z,98884.88
2022-10-11T04:36:00.084Z,98875.47
2022-10-11T04:38:26.531Z,98888.28
2022-10-11T04:40:53.032Z,98883.06
2022-10-11T04:43:19.758Z,98883.94
2022-10-11T04:45:46.461Z,98889.09
2022-10-11T04:48:14.014Z,98881.38
2022-10-11T04:50:40.508Z,98889.16
2022-10-11T04:53:14.715Z,98896.13
2022-10-11T04:55:41.160Z,98898.53
2022-10-11T04:58:07.573Z,98900.25
2022-10-11T05:00:34.080Z,98898.59
2022-10-11T05:03:00.569Z,98902.88
2022-10-11T05:05:27.099Z,98906.47
2022-10-11T05:07:53.616Z,98906.44
2022-10-11T05:10:20.108Z,98909.03
2022-10-11T05:12:46.615Z,98897.75
2022-10-11T05:15:13.167Z,98909.03
2022-10-11T05:17:39.607Z,98913.34
2022-10-11T05:20:06.840Z,98910.78
2022-10-11T05:22:33.240Z,98918.59
2022-10-11T05:24:59.728Z,98917.72
2022-10-11T05:27:26.306Z,98921.03
2022-10-11T05:29:52.723Z,98916.78
2022-10-11T05:32:19.177Z,98923.59
2022-10-11T05:34:45.664Z,98923.50
2022-10-11T05:37:12.087Z,98918.44
2022-10-11T05:39:38.549Z,98915.06
2022-10-11T05:42:09.622Z,98926.38
2022-10-11T05:44:36.428Z,98932.44
2022-10-11T05:47:03.142Z,98939.28
2022-10-11T05:49:29.580Z,98947.69
2022-10-11T05:51:56.684Z,98954.53
2022-10-11T05:54:23.343Z,98958.88
2022-10-11T05:56:49.844Z,98956.28
2022-10-11T05:59:16.377Z,98969.22
2022-10-11T06:01:42.907Z,98963.16
2022-10-11T06:04:09.915Z,98971.78
2022-10-11T06:06:36.346Z,98968.41
2022-10-11T06:09:02.884Z,98972.59
2022-10-11T06:11:29.440Z,98976.03
2022-10-11T06:14:00.856Z,98971.78
2022-10-11T06:16:27.583Z,98978.59
2022-10-11T06:18:55.038Z,98980.22
2022-10-11T06:21:22.126Z,98981.84
2022-10-11T06:23:50.755Z,98986.03
2022-10-11T06:26:18.209Z,98986.88
2022-10-11T06:28:44.859Z,98985.91
2022-10-11T06:31:12.553Z,98990.19
2022-10-11T06:33:39.484Z,98990.22
2022-10-11T06:36:09.772Z,99003.75
2022-10-11T06:38:39.831Z,98995.94
2022-10-11T06:41:17.863Z,99006.06
2022-10-11T06:43:44.896Z,99011.13
2022-10-11T06:46:12.331Z,99011.09
2022-10-11T06:48:43.509Z,99017.81
2022-10-11T06:51:13.759Z,99023.94
2022-10-11T06:53:40.894Z,99020.41
2022-10-11T06:56:09.946Z,99024.50
2022-10-11T06:58:37.626Z,99032.09
2022-10-11T07:01:06.440Z,99031.19
2022-10-11T07:03:33.363Z,99034.31
2022-10-11T07:06:05.124Z,99033.28
2022-10-11T07:08:32.331Z,99045.16
2022-10-11T07:11:20.211Z,99045.81
2022-10-11T07:13:56.446Z,99050.00
2022-10-11T07:16:23.664Z,99058.59
2022-10-11T07:18:59.913Z,99057.75
2022-10-11T07:21:27.767Z,99063.03
2022-10-11T07:23:54.277Z,99069.91
2022-10-11T07:26:20.798Z,99066.47
2022-10-11T07:28:47.515Z,99068.28
2022-10-11T07:31:17.870Z,99072.38
2022-10-11T07:33:44.371Z,99067.09
2022-10-11T07:36:11.584Z,99074.00
2022-10-11T07:38:46.270Z,99076.44
2022-10-11T07:41:13.429Z,99081.41
2022-10-11T07:43:40.188Z,99083.09
2022-10-11T07:46:07.432Z,99083.91
2022-10-11T07:48:35.653Z,99087.16
2022-10-11T07:51:15.072Z,99090.63
2022-10-11T07:53:43.622Z,99087.06
2022-10-11T07:56:12.616Z,99087.84
2022-10-11T07:58:40.643Z,99086.06
2022-10-11T08:01:08.435Z,99088.69
2022-10-11T08:03:35.494Z,99091.91
2022-10-11T08:06:05.106Z,99089.97
2022-10-11T08:08:31.729Z,99093.94
2022-10-11T08:10:59.421Z,99095.47
2022-10-11T08:13:26.676Z,99101.28
2022-10-11T08:15:53.874Z,99096.72
2022-10-11T08:18:20.310Z,99095.41
2022-10-11T08:20:47.028Z,99098.88
2022-10-11T08:23:13.831Z,99106.50
2022-10-11T08:25:42.535Z,99098.50
2022-10-11T08:28:10.086Z,99094.63
2022-10-11T08:30:36.651Z,99097.97
2022-10-11T08:33:07.612Z,99093.38
2022-10-11T08:35:36.165Z,99098.38
2022-10-11T08:38:02.816Z,99107.50
2022-10-11T08:40:34.264Z,99096.59
2022-10-11T08:43:08.285Z,99098.94
2022-10-11T08:45:57.212Z,99098.22
2022-10-11T08:48:41.659Z,99100.63
2022-10-11T08:51:28.238Z,99091.34
2022-10-11T08:54:12.421Z,99093.38
2022-10-11T08:56:40.787Z,99104.41
2022-10-11T08:59:13.420Z,99103.22
2022-10-11T09:02:21.527Z,99110.88
2022-10-11T09:04:51.566Z,99103.69
2022-10-11T09:07:34.490Z,99106.16
2022-10-11T09:10:41.259Z,99104.72
2022-10-11T09:13:16.884Z,99106.91
2022-10-11T09:16:07.219Z,99104.72
2022-10-11T09:18:41.089Z,99103.66
2022-10-11T09:21:52.454Z,99113.69
2022-10-11T09:24:37.077Z,99110.81
2022-10-11T09:28:01.330Z,99098.56
2022-10-11T09:30:23.167Z,99094.88
2022-10-11T09:33:09.511Z,99107.94
2022-10-11T09:35:44.231Z,99096.41
2022-10-11T09:38:37.739Z,99102.56
2022-10-11T09:41:21.803Z,99102.81
2022-10-11T09:43:50.968Z,99109.91
2022-10-11T09:46:40.340Z,99107.13
2022-10-11T09:49:15.923Z,99105.81
2022-10-11T09:51:47.427Z,99107.97
2022-10-11T09:54:13.921Z,99112.16
2022-10-11T09:56:43.542Z,99112.16
2022-10-11T09:59:10.004Z,99111.03
2022-10-11T10:01:36.700Z,99110.31
2022-10-11T10:04:10.881Z,99106.97
2022-10-11T10:06:38.613Z,99107.06
2022-10-11T10:09:28.733Z,99110.28
2022-10-11T10:11:55.964Z,99100.53
2022-10-11T10:14:28.647Z,99107.63
2022-10-11T10:17:13.561Z,99101.16
2022-10-11T10:19:47.211Z,99105.47
2022-10-11T10:22:20.459Z,99104.66
2022-10-11T10:24:50.097Z,99111.00
2022-10-11T10:27:28.088Z,99109.94
2022-10-11T10:30:09.863Z,99108.97
2022-10-11T10:32:48.540Z,99110.25
2022-10-11T10:35:38.909Z,99108.31
2022-10-11T10:38:17.110Z,99115.06
2022-10-11T10:40:56.573Z,99105.09
2022-10-11T10:43:26.334Z,99115.50
2022-10-11T10:46:34.120Z,99114.47
2022-10-11T10:52:03.200Z,99119.88
2022-10-11T10:54:40.618Z,99120.28
2022-10-11T10:57:33.487Z,99110.25
2022-10-11T11:00:05.992Z,99104.72
2022-10-11T11:02:44.685Z,99101.00
2022-10-11T11:05:28.565Z,99106.88
2022-10-11T11:08:05.667Z,99107.34
2022-10-11T11:10:53.987Z,99094.97
2022-10-11T11:13:20.389Z,99095.25
2022-10-11T11:16:00.053Z,99105.94
2022-10-11T11:18:41.094Z,99103.94
2022-10-11T11:21:10.485Z,99101.78
2022-10-11T11:24:00.381Z,99099.06
2022-10-11T11:26:54.600Z,99100.03
2022-10-11T11:29:44.391Z,99094.28
2022-10-11T11:32:23.363Z,99091.59
2022-10-11T11:34:58.352Z,99090.13
2022-10-11T11:37:44.089Z,99092.69
2022-10-11T11:40:21.783Z,99091.03
2022-10-11T11:42:51.544Z,99095.13
2022-10-11T11:45:27.105Z,99094.78
2022-10-11T11:48:05.576Z,99087.94
2022-10-11T11:50:40.103Z,99094.25
2022-10-11T11:53:16.722Z,99091.59
2022-10-11T11:56:19.545Z,99092.94
2022-10-11T11:58:59.559Z,99094.13
2022-10-11T12:01:32.035Z,99093.75
2022-10-11T12:04:04.549Z,99096.50
2022-10-11T12:06:34.040Z,99094.34
2022-10-11T12:09:22.317Z,99095.59
2022-10-11T12:11:56.216Z,99090.72
2022-10-11T12:14:32.952Z,99092.28
2022-10-11T12:17:11.048Z,99088.88
2022-10-11T12:19:40.035Z,99086.97
2022-10-11T12:22:28.038Z,99080.81
2022-10-11T12:25:01.206Z,99086.78
2022-10-11T12:27:45.168Z,99079.69
2022-10-11T12:30:42.821Z,99078.72
2022-10-11T12:33:21.329Z,99074.50
2022-10-11T12:36:01.513Z,99071.94
2022-10-11T12:38:37.294Z,99073.31
2022-10-11T12:41:09.816Z,99073.59
2022-10-11T12:44:01.717Z,99068.78
2022-10-11T12:46:28.159Z,99072.84
2022-10-11T12:49:16.918Z,99072.69
2022-10-11T12:51:46.345Z,99069.72
2022-10-11T12:54:45.334Z,99067.44
2022-10-11T12:57:47.158Z,99070.03
2022-10-11T13:00:32.075Z,99067.91
2022-10-11T13:03:04.785Z,99065.97
2022-10-11T13:05:46.952Z,99061.66
2022-10-11T13:08:22.827Z,99060.34
2022-10-11T13:10:49.551Z,99056.97
2022-10-11T13:13:49.406Z,99057.88
2022-10-11T13:16:19.064Z,99058.28
2022-10-11T13:18:48.298Z,99062.72
2022-10-11T13:21:21.463Z,99056.38
2022-10-11T13:23:55.385Z,99060.47
2022-10-11T13:26:21.801Z,99053.31
2022-10-11T13:28:48.339Z,99059.69
2022-10-11T13:31:14.909Z,99054.09
2022-10-11T13:33:43.286Z,99052.28
2022-10-11T13:36:17.578Z,99056.38
2022-10-11T13:38:53.614Z,99056.31
2022-10-11T13:41:21.688Z,99052.34
2022-10-11T13:43:48.437Z,99059.34
2022-10-11T13:46:22.382Z,99065.69
2022-10-11T13:49:26.544Z,99058.28
2022-10-11T13:52:01.861Z,99050.66
2022-10-11T13:54:53.212Z,99047.97
2022-10-11T13:57:22.078Z,99047.00
2022-10-11T13:59:48.847Z,99043.88
2022-10-11T14:02:23.770Z,99047.38
2022-10-11T14:04:50.453Z,99043.47
2022-10-11T14:07:31.743Z,99041.13
2022-10-11T14:09:58.358Z,99042.31
2022-10-11T14:12:35.680Z,99038.94
2022-10-11T14:15:05.173Z,99035.38
2022-10-11T14:17:43.721Z,99039.50
2022-10-11T14:20:33.441Z,99033.38
2022-10-11T14:23:00.084Z,99037.44
2022-10-11T14:25:26.719Z,99042.69
2022-10-11T14:27:54.634Z,99034.06
2022-10-11T14:30:26.579Z,99040.41
2022-10-11T14:32:56.577Z,99032.97
2022-10-11T14:35:28.918Z,99029.94
2022-10-11T14:37:55.464Z,99029.22
2022-10-11T14:40:24.587Z,99027.97
2022-10-11T14:42:51.348Z,99033.34
2022-10-11T14:45:18.806Z,99039.25
2022-10-11T14:47:45.367Z,99035.06
2022-10-11T14:50:28.582Z,99031.66
2022-10-11T14:52:55.944Z,99033.63
2022-10-11T14:55:22.772Z,99033.66
2022-10-11T14:57:49.206Z,99039.06
2022-10-11T15:00:22.668Z,99027.91
2022-10-11T15:02:50.817Z,99040.16
2022-10-11T15:05:17.253Z,99041.88
2022-10-11T15:07:43.948Z,99034.22
2022-10-11T15:10:45.401Z,99040.69
2022-10-11T15:13:11.826Z,99043.59
2022-10-11T15:15:41.210Z,99038.78
2022-10-11T15:18:21.116Z,99037.97
2022-10-11T15:20:47.826Z,99045.44
2022-10-11T15:23:14.352Z,99039.84
2022-10-11T15:25:41.475Z,99046.06
2022-10-11T15:28:13.852Z,99048.03
2022-10-11T15:30:41.848Z,99050.75
2022-10-11T15:33:08.381Z,99053.69
2022-10-11T15:35:34.864Z,99053.13
2022-10-11T15:38:01.353Z,99048.97
2022-10-11T15:40:33.639Z,99044.66
2022-10-11T15:43:00.310Z,99056.28
2022-10-11T15:45:27.059Z,99055.50
2022-10-11T15:47:53.683Z,99049.50
2022-10-11T15:50:36.710Z,99056.47
2022-10-11T15:53:15.513Z,99057.75
2022-10-11T15:55:45.042Z,99056.25
2022-10-11T15:58:33.330Z,99047.78
2022-10-11T16:01:05.373Z,99052.28
2022-10-11T16:03:33.407Z,99054.03
2022-10-11T16:06:04.948Z,99054.47
2022-10-11T16:08:32.873Z,99053.72
2022-10-11T16:11:02.705Z,99056.47
2022-10-11T16:13:29.160Z,99059.28
2022-10-11T16:15:55.795Z,99057.44
2022-10-11T16:18:22.444Z,99061.88
2022-10-11T16:20:54.253Z,99049.16
2022-10-11T16:23:21.991Z,99051.19
2022-10-11T16:26:06.817Z,99056.59
2022-10-11T16:28:36.805Z,99058.41
2022-10-11T16:31:13.127Z,99055.94
2022-10-11T16:33:45.692Z,99061.31
2022-10-11T16:36:35.726Z,99066.84
2022-10-11T16:39:28.980Z,99067.16
2022-10-11T16:41:55.447Z,99058.66
2022-10-11T16:44:25.267Z,99061.44
2022-10-11T16:46:52.017Z,99060.44
2022-10-11T16:49:22.538Z,99063.28
2022-10-11T16:51:50.861Z,99065.16
2022-10-11T16:54:20.465Z,99070.47
2022-10-11T16:56:50.676Z,99062.84
2022-10-11T16:59:17.438Z,99071.50
2022-10-11T17:01:45.130Z,99068.13
2022-10-11T17:04:12.095Z,99065.72
2022-10-11T17:06:40.221Z,99069.34
2022-10-11T17:09:07.420Z,99068.69
2022-10-11T17:11:33.951Z,99067.84
2022-10-11T17:14:01.735Z,99071.38
2022-10-11T17:16:28.652Z,99073.28
2022-10-11T17:18:55.111Z,99065.50
2022-10-11T17:21:21.978Z,99067.31
2022-10-11T17:23:49.344Z,99063.00
2022-10-11T17:26:27.542Z,99066.47
2022-10-11T17:28:58.536Z,99072.81
2022-10-11T17:31:25.327Z,99073.13
2022-10-11T17:33:53.205Z,99066.31
2022-10-11T17:36:30.477Z,99070.75
2022-10-11T17:38:58.033Z,99069.25
2022-10-11T17:41:29.456Z,99071.09
2022-10-11T17:43:58.262Z,99072.84
2022-10-11T17:46:25.790Z,99069.53
2022-10-11T17:48:54.955Z,99078.28
2022-10-11T17:51:21.412Z,99076.63
2022-10-11T17:53:48.576Z,99074.94
2022-10-11T17:56:18.729Z,99071.63
2022-10-11T17:58:45.785Z,99067.41
2022-10-11T18:01:14.860Z,99080.47
2022-10-11T18:03:42.527Z,99072.75
2022-10-11T18:06:13.225Z,99078.88
2022-10-11T18:08:41.056Z,99072.00
2022-10-11T18:11:13.761Z,99063.53
2022-10-11T18:13:45.597Z,99070.47
2022-10-11T18:16:14.740Z,99069.56
2022-10-11T18:18:42.260Z,99069.53
2022-10-11T18:21:08.941Z,99067.00
2022-10-11T18:23:37.400Z,99072.06
2022-10-11T18:26:11.836Z,99062.53
2022-10-11T18:28:38.900Z,99063.50
2022-10-11T18:31:13.477Z,99068.69
2022-10-11T18:33:40.964Z,99064.31
2022-10-11T18:36:08.409Z,99063.28
2022-10-11T18:38:35.877Z,99065.00
2022-10-11T18:41:07.639Z,99068.44
2022-10-11T18:43:34.872Z,99072.88
2022-10-11T18:46:12.420Z,99071.94
2022-10-11T18:48:43.968Z,99063.34
2022-10-11T18:51:14.355Z,99067.50
2022-10-11T18:53:41.825Z,99069.09
2022-10-11T18:56:10.406Z,99070.91
2022-10-11T18:58:38.834Z,99070.94
2022-10-11T19:01:13.256Z,99063.28
2022-10-11T19:03:39.687Z,99060.59
2022-10-11T19:06:09.313Z,99057.97
2022-10-11T19:08:35.896Z,99057.16
2022-10-11T19:11:10.385Z,99061.44
2022-10-11T19:13:36.964Z,99063.16
2022-10-11T19:16:14.590Z,99065.00
2022-10-11T19:18:44.301Z,99065.97
2022-10-11T19:21:12.979Z,99068.56
2022-10-11T19:23:40.780Z,99065.94
2022-10-11T19:26:09.080Z,99059.06
2022-10-11T19:28:35.845Z,99053.19
2022-10-11T19:31:05.067Z,99055.91
2022-10-11T19:33:32.995Z,99053.53
2022-10-11T19:36:05.603Z,99064.66
2022-10-11T19:38:34.452Z,99063.91
2022-10-11T19:41:01.756Z,99064.97
2022-10-11T19:43:28.207Z,99066.72
2022-10-11T19:46:20.221Z,99065.88
2022-10-11T19:48:54.286Z,99070.22
2022-10-11T19:51:25.798Z,99073.59
2022-10-11T19:54:00.187Z,99073.53
2022-10-11T19:56:28.974Z,99079.59
2022-10-11T19:58:55.487Z,99073.66
2022-10-11T20:01:24.623Z,99071.16
2022-10-11T20:03:54.068Z,99071.25
2022-10-11T20:06:21.997Z,99083.38
2022-10-11T20:09:10.301Z,99077.22
2022-10-11T20:11:38.819Z,99081.63
2022-10-11T20:14:05.223Z,99078.25
2022-10-11T20:16:31.714Z,99077.47
2022-10-11T20:18:59.217Z,99082.75
2022-10-11T20:21:27.743Z,99087.19
2022-10-11T20:23:58.931Z,99077.75
2022-10-11T20:26:26.876Z,99081.38
2022-10-11T20:28:56.072Z,99075.44
2022-10-11T20:31:25.999Z,99081.50
2022-10-11T20:33:56.407Z,99079.00
2022-10-11T20:36:25.204Z,99090.22
2022-10-11T20:38:54.261Z,99086.78
2022-10-11T20:41:23.907Z,99083.34
2022-10-11T20:43:56.697Z,99081.63
2022-10-11T20:49:18.969Z,99085.19
2022-10-11T20:51:47.965Z,99091.19
2022-10-11T20:56:55.482Z,99099.06
2022-10-11T20:59:25.592Z,99092.28
2022-10-11T21:01:54.120Z,99093.16
2022-10-11T21:04:20.805Z,99088.91
2022-10-11T21:06:48.535Z,99091.66
2022-10-11T21:09:32.772Z,99092.56
2022-10-11T21:12:02.797Z,99090.84
2022-10-11T21:14:29.296Z,99093.63
2022-10-11T21:16:55.964Z,99091.09
2022-10-11T21:19:22.607Z,99092.03
2022-10-11T21:21:53.523Z,99092.88
2022-10-11T21:24:20.579Z,99088.75
2022-10-11T21:26:47.802Z,99082.88
2022-10-11T21:29:14.347Z,99094.97
2022-10-11T21:31:40.867Z,99095.03
2022-10-11T21:34:07.493Z,99088.19
2022-10-11T21:36:34.101Z,99093.34
2022-10-11T21:39:00.528Z,99094.25
2022-10-11T21:41:30.001Z,99092.56
2022-10-11T21:43:57.191Z,99094.34
2022-10-11T21:46:41.747Z,99083.22
2022-10-11T21:49:12.880Z,99080.66
2022-10-11T21:51:39.371Z,99084.09
2022-10-11T21:54:05.907Z,99081.53
2022-10-11T21:56:32.561Z,99084.09
2022-10-11T21:58:59.224Z,99079.81
2022-10-11T22:01:25.779Z,99083.25
2022-10-11T22:03:55.270Z,99083.25
2022-10-11T22:06:22.109Z,99076.44
2022-10-11T22:08:50.041Z,99077.28
2022-10-11T22:11:16.864Z,99074.78
2022-10-11T22:13:43.341Z,99074.88
2022-10-11T22:16:12.793Z,99075.06
2022-10-11T22:18:39.789Z,99072.59
2022-10-11T22:21:09.737Z,99078.69
2022-10-11T22:23:36.538Z,99073.59
2022-10-11T22:26:13.159Z,99080.56
2022-10-11T22:28:40.510Z,99069.47
2022-10-11T22:31:09.267Z,99072.84
2022-10-11T22:33:36.519Z,99070.25
2022-10-11T22:36:06.345Z,99066.91
2022-10-11T22:38:35.058Z,99066.91
2022-10-11T22:41:01.518Z,99061.75
2022-10-11T22:43:27.972Z,99061.69
2022-10-11T22:45:54.452Z,99061.69
2022-10-11T22:48:21.105Z,99059.13
2022-10-11T22:50:47.598Z,99069.41
2022-10-11T22:53:14.751Z,99067.69
2022-10-11T22:55:41.868Z,99062.69
2022-10-11T22:58:09.020Z,99068.69
2022-10-11T23:00:35.928Z,99067.81
2022-10-11T23:03:02.371Z,99070.38
2022-10-11T23:05:28.854Z,99074.81
2022-10-11T23:07:55.387Z,99082.59
2022-10-11T23:10:21.926Z,99078.31
2022-10-11T23:12:48.462Z,99077.34
2022-10-11T23:15:15.429Z,99075.72
2022-10-11T23:17:42.363Z,99079.19
2022-10-11T23:20:09.529Z,99076.59
2022-10-11T23:22:36.163Z,99069.75
2022-10-11T23:25:02.881Z,99077.44
2022-10-11T23:27:30.347Z,99074.88
2022-10-11T23:29:56.868Z,99080.06
2022-10-11T23:32:23.421Z,99074.94
2022-10-11T23:34:49.901Z,99069.78
2022-10-11T23:37:16.385Z,99071.50
2022-10-11T23:39:42.912Z,99075.81
2022-10-11T23:42:09.355Z,99071.50
2022-10-11T23:44:35.801Z,99073.19
2022-10-11T23:47:02.313Z,99071.47
2022-10-11T23:49:28.750Z,99072.38
2022-10-11T23:51:55.157Z,99074.09
2022-10-11T23:54:21.599Z,99068.97
2022-10-11T23:56:48.026Z,99067.28
2022-10-11T23:59:14.531Z,99064.66
